sensor_id;sensor_type;location;lat;lon;timestamp;P1;durP1;ratioP1;P2;durP2;ratioP2
54599;SDS011;40500;51.084;16.958;2023-04-29T00:01:55;5.70;;;3.60;;
54599;SDS011;40500;51.084;16.958;2023-04-29T00:04:26;3.90;;;3.40;;
54599;SDS011;40500;51.084;16.958;2023-04-29T00:06:57;7.80;;;3.60;;
54599;SDS011;40500;51.084;16.958;2023-04-29T00:09:28;4.80;;;3.20;;
54599;SDS011;40500;51.084;16.958;2023-04-29T00:11:58;5.40;;;3.80;;
54599;SDS011;40500;51.084;16.958;2023-04-29T00:14:29;5.40;;;3.90;;
54599;SDS011;40500;51.084;16.958;2023-04-29T00:16:59;6.50;;;3.80;;
54599;SDS011;40500;51.084;16.958;2023-04-29T00:19:30;3.90;;;3.50;;
54599;SDS011;40500;51.084;16.958;2023-04-29T00:22:00;6.80;;;4.20;;
54599;SDS011;40500;51.084;16.958;2023-04-29T00:24:31;4.20;;;3.30;;
54599;SDS011;40500;51.084;16.958;2023-04-29T00:27:01;5.20;;;3.70;;
54599;SDS011;40500;51.084;16.958;2023-04-29T00:29:32;10.00;;;4.80;;
54599;SDS011;40500;51.084;16.958;2023-04-29T00:32:04;5.80;;;3.80;;
54599;SDS011;40500;51.084;16.958;2023-04-29T00:34:34;5.60;;;4.00;;
54599;SDS011;40500;51.084;16.958;2023-04-29T00:37:05;4.80;;;3.70;;
54599;SDS011;40500;51.084;16.958;2023-04-29T00:39:36;8.10;;;4.30;;
54599;SDS011;40500;51.084;16.958;2023-04-29T00:42:06;6.00;;;3.80;;
54599;SDS011;40500;51.084;16.958;2023-04-29T00:44:37;5.50;;;3.90;;
54599;SDS011;40500;51.084;16.958;2023-04-29T00:47:08;5.60;;;3.60;;
54599;SDS011;40500;51.084;16.958;2023-04-29T00:49:39;8.40;;;4.30;;
54599;SDS011;40500;51.084;16.958;2023-04-29T00:52:10;7.00;;;4.10;;
54599;SDS011;40500;51.084;16.958;2023-04-29T00:54:41;5.00;;;3.70;;
54599;SDS011;40500;51.084;16.958;2023-04-29T00:57:12;8.00;;;4.40;;
54599;SDS011;40500;51.084;16.958;2023-04-29T00:59:43;7.20;;;4.80;;
54599;SDS011;40500;51.084;16.958;2023-04-29T01:02:15;6.20;;;4.00;;
54599;SDS011;40500;51.084;16.958;2023-04-29T01:04:46;7.80;;;3.90;;
54599;SDS011;40500;51.084;16.958;2023-04-29T01:07:18;6.20;;;4.10;;
54599;SDS011;40500;51.084;16.958;2023-04-29T01:10:00;5.90;;;3.90;;
54599;SDS011;40500;51.084;16.958;2023-04-29T01:12:44;9.40;;;5.00;;
54599;SDS011;40500;51.084;16.958;2023-04-29T01:15:21;6.30;;;4.50;;
54599;SDS011;40500;51.084;16.958;2023-04-29T01:17:58;6.60;;;4.20;;
54599;SDS011;40500;51.084;16.958;2023-04-29T01:20:38;6.60;;;3.60;;
54599;SDS011;40500;51.084;16.958;2023-04-29T01:23:11;9.10;;;5.20;;
54599;SDS011;40500;51.084;16.958;2023-04-29T01:25:42;7.10;;;4.60;;
54599;SDS011;40500;51.084;16.958;2023-04-29T01:28:28;10.30;;;4.40;;
54599;SDS011;40500;51.084;16.958;2023-04-29T01:31:09;9.20;;;5.00;;
54599;SDS011;40500;51.084;16.958;2023-04-29T01:33:46;9.90;;;4.30;;
54599;SDS011;40500;51.084;16.958;2023-04-29T01:36:25;6.90;;;4.00;;
54599;SDS011;40500;51.084;16.958;2023-04-29T01:41:40;7.70;;;4.10;;
54599;SDS011;40500;51.084;16.958;2023-04-29T01:44:22;7.40;;;3.80;;
54599;SDS011;40500;51.084;16.958;2023-04-29T01:46:57;10.50;;;4.80;;
54599;SDS011;40500;51.084;16.958;2023-04-29T01:49:35;5.20;;;3.80;;
54599;SDS011;40500;51.084;16.958;2023-04-29T01:52:06;7.50;;;4.60;;
54599;SDS011;40500;51.084;16.958;2023-04-29T01:54:38;11.20;;;5.20;;
54599;SDS011;40500;51.084;16.958;2023-04-29T01:57:09;6.90;;;4.60;;
54599;SDS011;40500;51.084;16.958;2023-04-29T01:59:51;7.20;;;5.00;;
54599;SDS011;40500;51.084;16.958;2023-04-29T02:02:39;7.60;;;4.80;;
54599;SDS011;40500;51.084;16.958;2023-04-29T02:05:39;8.70;;;5.40;;
54599;SDS011;40500;51.084;16.958;2023-04-29T02:08:10;6.40;;;5.00;;
54599;SDS011;40500;51.084;16.958;2023-04-29T02:10:47;7.90;;;5.80;;
54599;SDS011;40500;51.084;16.958;2023-04-29T02:13:31;10.50;;;6.20;;
54599;SDS011;40500;51.084;16.958;2023-04-29T02:16:07;7.40;;;5.00;;
54599;SDS011;40500;51.084;16.958;2023-04-29T02:18:42;7.30;;;4.30;;
54599;SDS011;40500;51.084;16.958;2023-04-29T02:21:13;8.40;;;5.70;;
54599;SDS011;40500;51.084;16.958;2023-04-29T02:23:43;8.80;;;6.20;;
54599;SDS011;40500;51.084;16.958;2023-04-29T02:26:14;8.70;;;6.10;;
54599;SDS011;40500;51.084;16.958;2023-04-29T02:28:44;10.00;;;6.50;;
54599;SDS011;40500;51.084;16.958;2023-04-29T02:31:15;8.10;;;5.80;;
54599;SDS011;40500;51.084;16.958;2023-04-29T02:33:47;7.30;;;5.40;;
54599;SDS011;40500;51.084;16.958;2023-04-29T02:36:18;8.40;;;5.60;;
54599;SDS011;40500;51.084;16.958;2023-04-29T02:38:50;11.80;;;6.20;;
54599;SDS011;40500;51.084;16.958;2023-04-29T02:41:22;11.40;;;7.30;;
54599;SDS011;40500;51.084;16.958;2023-04-29T02:43:53;15.00;;;7.50;;
54599;SDS011;40500;51.084;16.958;2023-04-29T02:46:24;9.90;;;6.60;;
54599;SDS011;40500;51.084;16.958;2023-04-29T02:48:54;7.90;;;5.70;;
54599;SDS011;40500;51.084;16.958;2023-04-29T02:51:25;8.90;;;6.10;;
54599;SDS011;40500;51.084;16.958;2023-04-29T02:53:55;7.60;;;6.10;;
54599;SDS011;40500;51.084;16.958;2023-04-29T02:56:26;10.20;;;6.10;;
54599;SDS011;40500;51.084;16.958;2023-04-29T02:58:57;6.90;;;5.40;;
54599;SDS011;40500;51.084;16.958;2023-04-29T03:01:27;9.80;;;6.50;;
54599;SDS011;40500;51.084;16.958;2023-04-29T03:03:58;10.30;;;5.80;;
54599;SDS011;40500;51.084;16.958;2023-04-29T03:06:29;7.80;;;5.40;;
54599;SDS011;40500;51.084;16.958;2023-04-29T03:08:59;11.50;;;6.70;;
54599;SDS011;40500;51.084;16.958;2023-04-29T03:11:30;15.30;;;6.10;;
54599;SDS011;40500;51.084;16.958;2023-04-29T03:14:01;10.50;;;6.20;;
54599;SDS011;40500;51.084;16.958;2023-04-29T03:16:31;7.20;;;6.10;;
54599;SDS011;40500;51.084;16.958;2023-04-29T03:19:02;8.00;;;5.70;;
54599;SDS011;40500;51.084;16.958;2023-04-29T03:21:33;6.20;;;5.30;;
54599;SDS011;40500;51.084;16.958;2023-04-29T03:24:04;9.20;;;5.80;;
54599;SDS011;40500;51.084;16.958;2023-04-29T03:26:35;8.20;;;5.20;;
54599;SDS011;40500;51.084;16.958;2023-04-29T03:29:06;6.30;;;4.90;;
54599;SDS011;40500;51.084;16.958;2023-04-29T03:31:37;9.60;;;6.00;;
54599;SDS011;40500;51.084;16.958;2023-04-29T03:34:08;8.90;;;5.40;;
54599;SDS011;40500;51.084;16.958;2023-04-29T03:36:39;7.20;;;4.90;;
54599;SDS011;40500;51.084;16.958;2023-04-29T03:39:11;8.70;;;6.00;;
54599;SDS011;40500;51.084;16.958;2023-04-29T03:41:42;6.60;;;5.30;;
54599;SDS011;40500;51.084;16.958;2023-04-29T03:44:15;8.00;;;5.60;;
54599;SDS011;40500;51.084;16.958;2023-04-29T03:46:45;8.00;;;5.00;;
54599;SDS011;40500;51.084;16.958;2023-04-29T03:49:16;8.20;;;5.90;;
54599;SDS011;40500;51.084;16.958;2023-04-29T03:51:46;9.00;;;5.30;;
54599;SDS011;40500;51.084;16.958;2023-04-29T03:54:17;6.90;;;5.00;;
54599;SDS011;40500;51.084;16.958;2023-04-29T03:56:48;7.20;;;5.70;;
54599;SDS011;40500;51.084;16.958;2023-04-29T03:59:18;7.30;;;5.30;;
54599;SDS011;40500;51.084;16.958;2023-04-29T04:01:50;10.20;;;5.90;;
54599;SDS011;40500;51.084;16.958;2023-04-29T04:04:21;6.90;;;4.90;;
54599;SDS011;40500;51.084;16.958;2023-04-29T04:06:52;7.70;;;5.60;;
54599;SDS011;40500;51.084;16.958;2023-04-29T04:09:25;7.90;;;5.20;;
54599;SDS011;40500;51.084;16.958;2023-04-29T04:11:55;9.70;;;5.40;;
54599;SDS011;40500;51.084;16.958;2023-04-29T04:14:28;8.40;;;5.20;;
54599;SDS011;40500;51.084;16.958;2023-04-29T04:16:58;7.20;;;4.90;;
54599;SDS011;40500;51.084;16.958;2023-04-29T04:19:30;10.70;;;5.70;;
54599;SDS011;40500;51.084;16.958;2023-04-29T04:22:00;11.00;;;5.90;;
54599;SDS011;40500;51.084;16.958;2023-04-29T04:24:32;9.40;;;6.10;;
54599;SDS011;40500;51.084;16.958;2023-04-29T04:27:03;7.20;;;5.30;;
54599;SDS011;40500;51.084;16.958;2023-04-29T04:29:38;8.50;;;5.90;;
54599;SDS011;40500;51.084;16.958;2023-04-29T04:32:16;7.80;;;5.60;;
54599;SDS011;40500;51.084;16.958;2023-04-29T04:34:46;10.40;;;6.80;;
54599;SDS011;40500;51.084;16.958;2023-04-29T04:37:17;12.70;;;7.50;;
54599;SDS011;40500;51.084;16.958;2023-04-29T04:39:50;11.30;;;7.60;;
54599;SDS011;40500;51.084;16.958;2023-04-29T04:42:22;13.30;;;6.00;;
54599;SDS011;40500;51.084;16.958;2023-04-29T04:44:53;12.20;;;7.20;;
54599;SDS011;40500;51.084;16.958;2023-04-29T04:47:50;11.40;;;6.70;;
54599;SDS011;40500;51.084;16.958;2023-04-29T04:50:23;10.30;;;6.30;;
54599;SDS011;40500;51.084;16.958;2023-04-29T04:52:55;7.40;;;5.40;;
54599;SDS011;40500;51.084;16.958;2023-04-29T04:55:40;8.80;;;5.40;;
54599;SDS011;40500;51.084;16.958;2023-04-29T04:58:10;9.70;;;6.40;;
54599;SDS011;40500;51.084;16.958;2023-04-29T05:00:43;9.30;;;5.40;;
54599;SDS011;40500;51.084;16.958;2023-04-29T05:03:14;8.30;;;5.60;;
54599;SDS011;40500;51.084;16.958;2023-04-29T05:05:45;7.10;;;4.90;;
54599;SDS011;40500;51.084;16.958;2023-04-29T05:08:20;8.40;;;5.00;;
54599;SDS011;40500;51.084;16.958;2023-04-29T05:10:52;9.30;;;5.70;;
54599;SDS011;40500;51.084;16.958;2023-04-29T05:13:23;6.70;;;5.70;;
54599;SDS011;40500;51.084;16.958;2023-04-29T05:15:54;9.00;;;4.90;;
54599;SDS011;40500;51.084;16.958;2023-04-29T05:18:27;8.90;;;5.10;;
54599;SDS011;40500;51.084;16.958;2023-04-29T05:20:59;7.80;;;6.00;;
54599;SDS011;40500;51.084;16.958;2023-04-29T05:23:29;7.80;;;5.30;;
54599;SDS011;40500;51.084;16.958;2023-04-29T05:26:00;10.70;;;6.00;;
54599;SDS011;40500;51.084;16.958;2023-04-29T05:28:30;5.40;;;4.40;;
54599;SDS011;40500;51.084;16.958;2023-04-29T05:31:01;8.30;;;6.10;;
54599;SDS011;40500;51.084;16.958;2023-04-29T05:33:32;6.50;;;5.30;;
54599;SDS011;40500;51.084;16.958;2023-04-29T05:36:03;8.50;;;5.70;;
54599;SDS011;40500;51.084;16.958;2023-04-29T05:38:35;9.70;;;6.40;;
54599;SDS011;40500;51.084;16.958;2023-04-29T05:41:08;7.70;;;5.70;;
54599;SDS011;40500;51.084;16.958;2023-04-29T05:43:59;6.40;;;5.30;;
54599;SDS011;40500;51.084;16.958;2023-04-29T05:46:31;8.30;;;5.90;;
54599;SDS011;40500;51.084;16.958;2023-04-29T05:49:02;8.40;;;5.70;;
54599;SDS011;40500;51.084;16.958;2023-04-29T05:51:33;6.90;;;5.60;;
54599;SDS011;40500;51.084;16.958;2023-04-29T05:54:03;8.40;;;5.50;;
54599;SDS011;40500;51.084;16.958;2023-04-29T05:56:34;10.10;;;5.80;;
54599;SDS011;40500;51.084;16.958;2023-04-29T05:59:04;7.60;;;5.20;;
54599;SDS011;40500;51.084;16.958;2023-04-29T06:01:35;11.20;;;5.30;;
54599;SDS011;40500;51.084;16.958;2023-04-29T06:04:05;6.30;;;5.50;;
54599;SDS011;40500;51.084;16.958;2023-04-29T06:06:55;5.00;;;4.20;;
54599;SDS011;40500;51.084;16.958;2023-04-29T06:09:48;8.70;;;5.60;;
54599;SDS011;40500;51.084;16.958;2023-04-29T06:12:19;8.10;;;5.70;;
54599;SDS011;40500;51.084;16.958;2023-04-29T06:14:49;10.00;;;5.40;;
54599;SDS011;40500;51.084;16.958;2023-04-29T06:17:20;10.00;;;5.10;;
54599;SDS011;40500;51.084;16.958;2023-04-29T06:19:51;8.00;;;5.70;;
54599;SDS011;40500;51.084;16.958;2023-04-29T06:22:23;8.30;;;5.60;;
54599;SDS011;40500;51.084;16.958;2023-04-29T06:24:55;10.70;;;6.10;;
54599;SDS011;40500;51.084;16.958;2023-04-29T06:27:35;8.00;;;5.70;;
54599;SDS011;40500;51.084;16.958;2023-04-29T06:30:06;6.80;;;5.30;;
54599;SDS011;40500;51.084;16.958;2023-04-29T06:32:38;9.00;;;5.20;;
54599;SDS011;40500;51.084;16.958;2023-04-29T06:35:09;7.50;;;5.40;;
54599;SDS011;40500;51.084;16.958;2023-04-29T06:37:58;7.60;;;5.60;;
54599;SDS011;40500;51.084;16.958;2023-04-29T06:40:55;9.80;;;5.30;;
54599;SDS011;40500;51.084;16.958;2023-04-29T06:43:52;8.30;;;5.50;;
54599;SDS011;40500;51.084;16.958;2023-04-29T06:46:42;7.70;;;6.20;;
54599;SDS011;40500;51.084;16.958;2023-04-29T06:49:19;6.40;;;5.40;;
54599;SDS011;40500;51.084;16.958;2023-04-29T06:51:49;6.30;;;5.60;;
54599;SDS011;40500;51.084;16.958;2023-04-29T06:54:20;9.50;;;5.50;;
54599;SDS011;40500;51.084;16.958;2023-04-29T06:56:51;9.30;;;6.10;;
54599;SDS011;40500;51.084;16.958;2023-04-29T06:59:21;13.10;;;5.80;;
54599;SDS011;40500;51.084;16.958;2023-04-29T07:01:51;10.40;;;6.10;;
54599;SDS011;40500;51.084;16.958;2023-04-29T07:04:22;7.00;;;5.40;;
54599;SDS011;40500;51.084;16.958;2023-04-29T07:06:53;9.10;;;5.20;;
54599;SDS011;40500;51.084;16.958;2023-04-29T07:09:25;10.00;;;7.40;;
54599;SDS011;40500;51.084;16.958;2023-04-29T07:11:56;9.10;;;6.60;;
54599;SDS011;40500;51.084;16.958;2023-04-29T07:14:27;8.80;;;6.40;;
54599;SDS011;40500;51.084;16.958;2023-04-29T07:16:58;10.20;;;6.20;;
54599;SDS011;40500;51.084;16.958;2023-04-29T07:19:31;7.60;;;5.90;;
54599;SDS011;40500;51.084;16.958;2023-04-29T07:22:01;7.40;;;6.20;;
54599;SDS011;40500;51.084;16.958;2023-04-29T07:24:31;7.00;;;6.00;;
54599;SDS011;40500;51.084;16.958;2023-04-29T07:27:02;8.30;;;6.30;;
54599;SDS011;40500;51.084;16.958;2023-04-29T07:29:33;9.20;;;6.40;;
54599;SDS011;40500;51.084;16.958;2023-04-29T07:32:04;8.50;;;6.70;;
54599;SDS011;40500;51.084;16.958;2023-04-29T07:34:36;9.40;;;6.80;;
54599;SDS011;40500;51.084;16.958;2023-04-29T07:37:06;12.20;;;7.50;;
54599;SDS011;40500;51.084;16.958;2023-04-29T07:39:37;8.10;;;6.10;;
54599;SDS011;40500;51.084;16.958;2023-04-29T07:42:10;8.50;;;7.30;;
54599;SDS011;40500;51.084;16.958;2023-04-29T07:44:41;9.00;;;6.40;;
54599;SDS011;40500;51.084;16.958;2023-04-29T07:47:12;10.80;;;6.60;;
54599;SDS011;40500;51.084;16.958;2023-04-29T07:49:42;9.20;;;6.20;;
54599;SDS011;40500;51.084;16.958;2023-04-29T07:52:13;7.40;;;5.50;;
54599;SDS011;40500;51.084;16.958;2023-04-29T07:54:43;7.00;;;5.70;;
54599;SDS011;40500;51.084;16.958;2023-04-29T07:57:13;8.80;;;6.20;;
54599;SDS011;40500;51.084;16.958;2023-04-29T07:59:44;8.40;;;6.60;;
54599;SDS011;40500;51.084;16.958;2023-04-29T08:02:15;6.10;;;5.40;;
54599;SDS011;40500;51.084;16.958;2023-04-29T08:04:47;12.90;;;6.70;;
54599;SDS011;40500;51.084;16.958;2023-04-29T08:07:19;7.20;;;5.80;;
54599;SDS011;40500;51.084;16.958;2023-04-29T08:09:51;6.60;;;5.50;;
54599;SDS011;40500;51.084;16.958;2023-04-29T08:12:21;10.30;;;6.40;;
54599;SDS011;40500;51.084;16.958;2023-04-29T08:14:51;8.50;;;5.40;;
54599;SDS011;40500;51.084;16.958;2023-04-29T08:17:22;8.50;;;6.30;;
54599;SDS011;40500;51.084;16.958;2023-04-29T08:19:52;8.20;;;5.80;;
54599;SDS011;40500;51.084;16.958;2023-04-29T08:22:23;7.10;;;5.50;;
54599;SDS011;40500;51.084;16.958;2023-04-29T08:24:54;8.80;;;6.30;;
54599;SDS011;40500;51.084;16.958;2023-04-29T08:27:25;7.60;;;5.90;;
54599;SDS011;40500;51.084;16.958;2023-04-29T08:29:55;6.90;;;5.80;;
54599;SDS011;40500;51.084;16.958;2023-04-29T08:32:26;10.60;;;7.10;;
54599;SDS011;40500;51.084;16.958;2023-04-29T08:34:56;8.90;;;6.60;;
54599;SDS011;40500;51.084;16.958;2023-04-29T08:37:26;10.20;;;7.30;;
54599;SDS011;40500;51.084;16.958;2023-04-29T08:39:57;12.30;;;6.70;;
54599;SDS011;40500;51.084;16.958;2023-04-29T08:42:31;11.40;;;7.40;;
54599;SDS011;40500;51.084;16.958;2023-04-29T08:45:03;10.50;;;7.00;;
54599;SDS011;40500;51.084;16.958;2023-04-29T08:47:34;11.80;;;8.40;;
54599;SDS011;40500;51.084;16.958;2023-04-29T08:50:07;9.50;;;7.30;;
54599;SDS011;40500;51.084;16.958;2023-04-29T08:52:38;8.10;;;7.10;;
54599;SDS011;40500;51.084;16.958;2023-04-29T08:55:09;13.30;;;7.50;;
54599;SDS011;40500;51.084;16.958;2023-04-29T08:57:39;13.60;;;9.50;;
54599;SDS011;40500;51.084;16.958;2023-04-29T09:00:13;12.00;;;7.70;;
54599;SDS011;40500;51.084;16.958;2023-04-29T09:02:43;10.90;;;8.60;;
54599;SDS011;40500;51.084;16.958;2023-04-29T09:05:17;11.90;;;8.60;;
54599;SDS011;40500;51.084;16.958;2023-04-29T09:07:48;10.40;;;7.60;;
54599;SDS011;40500;51.084;16.958;2023-04-29T09:10:20;10.40;;;8.10;;
54599;SDS011;40500;51.084;16.958;2023-04-29T09:12:51;9.90;;;8.10;;
54599;SDS011;40500;51.084;16.958;2023-04-29T09:15:25;9.90;;;7.50;;
54599;SDS011;40500;51.084;16.958;2023-04-29T09:17:55;12.80;;;9.70;;
54599;SDS011;40500;51.084;16.958;2023-04-29T09:20:28;10.80;;;7.30;;
54599;SDS011;40500;51.084;16.958;2023-04-29T09:23:00;11.30;;;7.90;;
54599;SDS011;40500;51.084;16.958;2023-04-29T09:25:31;11.70;;;7.50;;
54599;SDS011;40500;51.084;16.958;2023-04-29T09:28:14;7.20;;;6.00;;
54599;SDS011;40500;51.084;16.958;2023-04-29T09:30:48;6.10;;;4.90;;
54599;SDS011;40500;51.084;16.958;2023-04-29T09:33:18;5.50;;;4.90;;
54599;SDS011;40500;51.084;16.958;2023-04-29T09:35:50;5.20;;;4.60;;
54599;SDS011;40500;51.084;16.958;2023-04-29T09:38:21;7.10;;;5.00;;
54599;SDS011;40500;51.084;16.958;2023-04-29T09:40:51;7.50;;;5.60;;
54599;SDS011;40500;51.084;16.958;2023-04-29T09:43:26;6.00;;;4.60;;
54599;SDS011;40500;51.084;16.958;2023-04-29T09:45:57;4.70;;;4.00;;
54599;SDS011;40500;51.084;16.958;2023-04-29T09:48:30;7.10;;;3.50;;
54599;SDS011;40500;51.084;16.958;2023-04-29T09:51:02;6.30;;;4.10;;
54599;SDS011;40500;51.084;16.958;2023-04-29T09:53:33;5.50;;;4.10;;
54599;SDS011;40500;51.084;16.958;2023-04-29T09:56:05;3.80;;;3.10;;
54599;SDS011;40500;51.084;16.958;2023-04-29T09:58:35;3.20;;;2.70;;
54599;SDS011;40500;51.084;16.958;2023-04-29T10:01:07;3.90;;;2.70;;
54599;SDS011;40500;51.084;16.958;2023-04-29T10:03:40;4.60;;;3.80;;
54599;SDS011;40500;51.084;16.958;2023-04-29T10:06:11;5.40;;;4.20;;
54599;SDS011;40500;51.084;16.958;2023-04-29T10:08:44;4.40;;;3.20;;
54599;SDS011;40500;51.084;16.958;2023-04-29T10:11:15;5.30;;;4.00;;
54599;SDS011;40500;51.084;16.958;2023-04-29T10:13:47;5.00;;;3.60;;
54599;SDS011;40500;51.084;16.958;2023-04-29T10:16:22;3.90;;;3.60;;
54599;SDS011;40500;51.084;16.958;2023-04-29T10:18:58;4.00;;;3.50;;
54599;SDS011;40500;51.084;16.958;2023-04-29T10:21:33;4.60;;;3.60;;
54599;SDS011;40500;51.084;16.958;2023-04-29T10:24:04;4.10;;;3.10;;
54599;SDS011;40500;51.084;16.958;2023-04-29T10:26:40;5.10;;;3.60;;
54599;SDS011;40500;51.084;16.958;2023-04-29T10:29:12;5.10;;;3.10;;
54599;SDS011;40500;51.084;16.958;2023-04-29T10:31:44;4.20;;;3.40;;
54599;SDS011;40500;51.084;16.958;2023-04-29T10:34:17;4.40;;;4.00;;
54599;SDS011;40500;51.084;16.958;2023-04-29T10:36:48;4.80;;;3.60;;
54599;SDS011;40500;51.084;16.958;2023-04-29T10:39:22;3.80;;;2.80;;
54599;SDS011;40500;51.084;16.958;2023-04-29T10:42:00;3.30;;;3.00;;
54599;SDS011;40500;51.084;16.958;2023-04-29T10:44:33;2.80;;;2.30;;
54599;SDS011;40500;51.084;16.958;2023-04-29T10:47:40;6.90;;;3.60;;
54599;SDS011;40500;51.084;16.958;2023-04-29T10:50:33;3.60;;;2.70;;
54599;SDS011;40500;51.084;16.958;2023-04-29T10:53:24;3.40;;;2.20;;
54599;SDS011;40500;51.084;16.958;2023-04-29T10:55:57;2.70;;;2.40;;
54599;SDS011;40500;51.084;16.958;2023-04-29T10:58:36;3.60;;;2.20;;
54599;SDS011;40500;51.084;16.958;2023-04-29T11:01:11;3.10;;;2.70;;
54599;SDS011;40500;51.084;16.958;2023-04-29T11:03:47;2.70;;;2.10;;
54599;SDS011;40500;51.084;16.958;2023-04-29T11:06:26;3.00;;;2.30;;
54599;SDS011;40500;51.084;16.958;2023-04-29T11:09:09;2.00;;;1.80;;
54599;SDS011;40500;51.084;16.958;2023-04-29T11:11:45;3.30;;;2.20;;
54599;SDS011;40500;51.084;16.958;2023-04-29T11:14:20;2.40;;;2.10;;
54599;SDS011;40500;51.084;16.958;2023-04-29T11:16:52;3.10;;;2.50;;
54599;SDS011;40500;51.084;16.958;2023-04-29T11:19:28;2.10;;;1.90;;
54599;SDS011;40500;51.084;16.958;2023-04-29T11:22:08;2.50;;;2.10;;
54599;SDS011;40500;51.084;16.958;2023-04-29T11:24:51;1.70;;;1.60;;
54599;SDS011;40500;51.084;16.958;2023-04-29T11:27:24;1.90;;;1.60;;
54599;SDS011;40500;51.084;16.958;2023-04-29T11:29:58;1.60;;;1.50;;
54599;SDS011;40500;51.084;16.958;2023-04-29T11:32:32;2.00;;;1.70;;
54599;SDS011;40500;51.084;16.958;2023-04-29T11:35:08;2.50;;;1.50;;
54599;SDS011;40500;51.084;16.958;2023-04-29T11:37:39;2.10;;;1.90;;
54599;SDS011;40500;51.084;16.958;2023-04-29T11:40:12;3.20;;;1.90;;
54599;SDS011;40500;51.084;16.958;2023-04-29T11:42:44;1.80;;;1.70;;
54599;SDS011;40500;51.084;16.958;2023-04-29T11:45:17;2.10;;;1.90;;
54599;SDS011;40500;51.084;16.958;2023-04-29T11:47:48;2.40;;;2.00;;
54599;SDS011;40500;51.084;16.958;2023-04-29T11:50:22;2.30;;;1.90;;
54599;SDS011;40500;51.084;16.958;2023-04-29T11:52:52;4.50;;;2.50;;
54599;SDS011;40500;51.084;16.958;2023-04-29T11:55:25;2.60;;;2.40;;
54599;SDS011;40500;51.084;16.958;2023-04-29T11:57:55;2.70;;;2.40;;
54599;SDS011;40500;51.084;16.958;2023-04-29T12:00:26;3.20;;;2.70;;
54599;SDS011;40500;51.084;16.958;2023-04-29T12:02:58;3.30;;;3.00;;
54599;SDS011;40500;51.084;16.958;2023-04-29T12:05:29;4.20;;;2.90;;
54599;SDS011;40500;51.084;16.958;2023-04-29T12:07:59;3.00;;;2.70;;
54599;SDS011;40500;51.084;16.958;2023-04-29T12:10:30;2.60;;;2.30;;
54599;SDS011;40500;51.084;16.958;2023-04-29T12:13:03;2.90;;;2.60;;
54599;SDS011;40500;51.084;16.958;2023-04-29T12:15:36;3.30;;;3.00;;
54599;SDS011;40500;51.084;16.958;2023-04-29T12:18:07;3.30;;;2.70;;
54599;SDS011;40500;51.084;16.958;2023-04-29T12:20:38;2.90;;;2.70;;
54599;SDS011;40500;51.084;16.958;2023-04-29T12:23:12;5.90;;;3.50;;
54599;SDS011;40500;51.084;16.958;2023-04-29T12:25:47;5.70;;;4.00;;
54599;SDS011;40500;51.084;16.958;2023-04-29T12:28:19;3.40;;;3.10;;
54599;SDS011;40500;51.084;16.958;2023-04-29T12:30:51;4.60;;;4.10;;
54599;SDS011;40500;51.084;16.958;2023-04-29T12:33:22;4.30;;;3.70;;
54599;SDS011;40500;51.084;16.958;2023-04-29T12:35:54;4.20;;;3.70;;
54599;SDS011;40500;51.084;16.958;2023-04-29T12:38:26;3.50;;;3.10;;
54599;SDS011;40500;51.084;16.958;2023-04-29T12:40:58;3.50;;;3.10;;
54599;SDS011;40500;51.084;16.958;2023-04-29T12:43:29;2.80;;;2.60;;
54599;SDS011;40500;51.084;16.958;2023-04-29T12:46:01;1.70;;;1.30;;
54599;SDS011;40500;51.084;16.958;2023-04-29T12:48:34;1.40;;;1.30;;
54599;SDS011;40500;51.084;16.958;2023-04-29T12:51:08;1.50;;;1.40;;
54599;SDS011;40500;51.084;16.958;2023-04-29T12:53:39;3.00;;;1.60;;
54599;SDS011;40500;51.084;16.958;2023-04-29T12:56:10;1.20;;;1.20;;
54599;SDS011;40500;51.084;16.958;2023-04-29T12:58:41;1.20;;;1.20;;
54599;SDS011;40500;51.084;16.958;2023-04-29T13:01:11;1.60;;;1.50;;
54599;SDS011;40500;51.084;16.958;2023-04-29T13:03:45;1.10;;;1.00;;
54599;SDS011;40500;51.084;16.958;2023-04-29T13:06:16;1.20;;;1.10;;
54599;SDS011;40500;51.084;16.958;2023-04-29T13:08:47;1.00;;;1.00;;
54599;SDS011;40500;51.084;16.958;2023-04-29T13:11:18;1.30;;;1.10;;
54599;SDS011;40500;51.084;16.958;2023-04-29T13:13:48;1.20;;;1.10;;
54599;SDS011;40500;51.084;16.958;2023-04-29T13:16:19;1.00;;;1.00;;
54599;SDS011;40500;51.084;16.958;2023-04-29T13:18:52;1.10;;;1.10;;
54599;SDS011;40500;51.084;16.958;2023-04-29T13:21:39;1.00;;;0.90;;
54599;SDS011;40500;51.084;16.958;2023-04-29T13:24:10;0.90;;;0.90;;
54599;SDS011;40500;51.084;16.958;2023-04-29T13:26:40;1.50;;;0.90;;
54599;SDS011;40500;51.084;16.958;2023-04-29T13:29:10;1.00;;;0.90;;
54599;SDS011;40500;51.084;16.958;2023-04-29T13:31:41;1.20;;;1.10;;
54599;SDS011;40500;51.084;16.958;2023-04-29T13:34:11;1.50;;;1.40;;
54599;SDS011;40500;51.084;16.958;2023-04-29T13:36:42;1.40;;;1.20;;
54599;SDS011;40500;51.084;16.958;2023-04-29T13:39:12;1.20;;;1.10;;
54599;SDS011;40500;51.084;16.958;2023-04-29T13:41:44;1.40;;;1.30;;
54599;SDS011;40500;51.084;16.958;2023-04-29T13:44:14;2.10;;;1.20;;
54599;SDS011;40500;51.084;16.958;2023-04-29T13:47:02;2.50;;;1.20;;
54599;SDS011;40500;51.084;16.958;2023-04-29T13:49:34;1.10;;;1.00;;
54599;SDS011;40500;51.084;16.958;2023-04-29T13:52:24;1.60;;;1.50;;
54599;SDS011;40500;51.084;16.958;2023-04-29T13:54:59;1.30;;;1.20;;
54599;SDS011;40500;51.084;16.958;2023-04-29T13:57:50;1.20;;;1.10;;
54599;SDS011;40500;51.084;16.958;2023-04-29T14:00:23;1.30;;;1.10;;
54599;SDS011;40500;51.084;16.958;2023-04-29T14:02:57;1.10;;;1.10;;
54599;SDS011;40500;51.084;16.958;2023-04-29T14:05:28;0.90;;;0.90;;
54599;SDS011;40500;51.084;16.958;2023-04-29T14:07:59;0.80;;;0.80;;
54599;SDS011;40500;51.084;16.958;2023-04-29T14:10:29;0.50;;;0.50;;
54599;SDS011;40500;51.084;16.958;2023-04-29T14:13:00;0.60;;;0.60;;
54599;SDS011;40500;51.084;16.958;2023-04-29T14:15:31;0.90;;;0.90;;
54599;SDS011;40500;51.084;16.958;2023-04-29T14:18:02;1.50;;;1.20;;
54599;SDS011;40500;51.084;16.958;2023-04-29T14:20:34;1.90;;;1.60;;
54599;SDS011;40500;51.084;16.958;2023-04-29T14:23:05;1.70;;;1.60;;
54599;SDS011;40500;51.084;16.958;2023-04-29T14:25:36;1.90;;;1.80;;
54599;SDS011;40500;51.084;16.958;2023-04-29T14:28:06;2.80;;;2.60;;
54599;SDS011;40500;51.084;16.958;2023-04-29T14:30:38;2.70;;;2.50;;
54599;SDS011;40500;51.084;16.958;2023-04-29T14:33:13;2.90;;;2.50;;
54599;SDS011;40500;51.084;16.958;2023-04-29T14:35:43;3.40;;;2.40;;
54599;SDS011;40500;51.084;16.958;2023-04-29T14:38:14;2.90;;;2.60;;
54599;SDS011;40500;51.084;16.958;2023-04-29T14:40:44;3.10;;;2.20;;
54599;SDS011;40500;51.084;16.958;2023-04-29T14:43:15;6.10;;;3.50;;
54599;SDS011;40500;51.084;16.958;2023-04-29T14:45:46;3.20;;;2.90;;
54599;SDS011;40500;51.084;16.958;2023-04-29T14:48:16;3.00;;;2.80;;
54599;SDS011;40500;51.084;16.958;2023-04-29T14:50:47;3.70;;;2.70;;
54599;SDS011;40500;51.084;16.958;2023-04-29T14:53:17;3.10;;;2.80;;
54599;SDS011;40500;51.084;16.958;2023-04-29T14:55:49;5.10;;;2.10;;
54599;SDS011;40500;51.084;16.958;2023-04-29T14:58:20;1.90;;;1.50;;
54599;SDS011;40500;51.084;16.958;2023-04-29T15:00:50;3.30;;;1.60;;
54599;SDS011;40500;51.084;16.958;2023-04-29T15:03:21;1.10;;;1.00;;
54599;SDS011;40500;51.084;16.958;2023-04-29T15:05:51;2.70;;;2.20;;
54599;SDS011;40500;51.084;16.958;2023-04-29T15:08:23;5.30;;;2.30;;
54599;SDS011;40500;51.084;16.958;2023-04-29T15:10:54;2.40;;;2.10;;